createdAt,value
2024-03-10T00:00:31.646Z,94300.63
2024-03-10T00:03:33.227Z,94300.44
2024-03-10T00:06:35.733Z,94294.97
2024-03-10T00:09:37.332Z,94301.91
2024-03-10T00:12:39.442Z,94294.81
2024-03-10T00:15:41.389Z,94291.00
2024-03-10T00:18:43.045Z,94293.66
2024-03-10T00:21:44.731Z,94286.53
2024-03-10T00:24:46.330Z,94290.66
2024-03-10T00:27:49.917Z,94293.78
2024-03-10T00:30:51.554Z,94295.25
2024-03-10T00:33:53.215Z,94293.91
2024-03-10T00:36:54.811Z,94293.56
2024-03-10T00:39:58.018Z,94288.09
2024-03-10T00:42:59.810Z,94286.28
2024-03-10T00:46:01.432Z,94281.47
2024-03-10T00:49:03.113Z,94285.59
2024-03-10T00:52:08.517Z,94279.28
2024-03-10T00:55:12.064Z,94267.56
2024-03-10T00:58:13.821Z,94271.03
2024-03-10T01:01:17.447Z,94267.38
2024-03-10T01:04:20.179Z,94256.59
2024-03-10T01:07:22.466Z,94261.72
2024-03-10T01:10:24.471Z,94250.16
2024-03-10T01:13:29.127Z,94257.91
2024-03-10T01:16:33.885Z,94250.63
2024-03-10T01:19:36.723Z,94250.81
2024-03-10T01:22:39.035Z,94247.78
2024-03-10T01:25:41.151Z,94246.97
2024-03-10T01:28:43.201Z,94251.09
2024-03-10T01:31:45.719Z,94235.22
2024-03-10T01:34:47.478Z,94227.44
2024-03-10T01:37:50.083Z,94228.75
2024-03-10T01:40:52.165Z,94221.81
2024-03-10T01:43:55.118Z,94223.91
2024-03-10T01:46:57.856Z,94224.56
2024-03-10T01:49:59.538Z,94218.44
2024-03-10T01:53:01.828Z,94206.22
2024-03-10T01:56:05.055Z,94205.69
2024-03-10T01:59:14.022Z,94197.56
2024-03-10T02:02:16.577Z,94193.25
2024-03-10T02:05:18.544Z,94201.19
2024-03-10T02:08:20.355Z,94199.38
2024-03-10T02:11:23.361Z,94196.09
2024-03-10T02:14:26.879Z,94193.25
2024-03-10T02:17:29.869Z,94189.81
2024-03-10T02:20:33.584Z,94184.69
2024-03-10T02:23:42.646Z,94179.72
2024-03-10T02:26:47.626Z,94179.72
2024-03-10T02:30:13.887Z,94180.72
2024-03-10T02:33:37.091Z,94186.41
2024-03-10T02:37:00.333Z,94163.78
2024-03-10T02:40:21.352Z,94170.75
2024-03-10T02:43:42.614Z,94174.38
2024-03-10T02:47:04.346Z,94179.22
2024-03-10T02:50:07.194Z,94182.38
2024-03-10T02:53:11.326Z,94172.16
2024-03-10T02:56:14.645Z,94169.03
2024-03-10T02:59:16.755Z,94165.94
2024-03-10T03:02:20.343Z,94161.16
2024-03-10T03:05:22.963Z,94157.38
2024-03-10T03:08:26.042Z,94159.38
2024-03-10T03:11:28.420Z,94150.50
2024-03-10T03:14:30.106Z,94154.16
2024-03-10T03:17:32.434Z,94139.78
2024-03-10T03:20:36.474Z,94140.78
2024-03-10T03:23:38.199Z,94132.38
2024-03-10T03:26:40.389Z,94125.63
2024-03-10T03:29:42.464Z,94114.59
2024-03-10T03:32:44.426Z,94110.28
2024-03-10T03:35:46.110Z,94112.28
2024-03-10T03:38:48.194Z,94106.53
2024-03-10T03:41:49.801Z,94106.69
2024-03-10T03:44:52.482Z,94097.28
2024-03-10T03:47:54.115Z,94102.75
2024-03-10T03:50:55.713Z,94099.09
2024-03-10T03:53:58.239Z,94098.66
2024-03-10T03:57:00.673Z,94086.41
2024-03-10T04:00:06.748Z,94086.59
2024-03-10T04:03:11.439Z,94086.75
2024-03-10T04:06:15.897Z,94094.88
2024-03-10T04:09:18.461Z,94096.69
2024-03-10T04:12:20.323Z,94091.75
2024-03-10T04:15:23.029Z,94087.28
2024-03-10T04:18:24.713Z,94093.56
2024-03-10T04:21:26.498Z,94093.72
2024-03-10T04:24:28.067Z,94082.16
2024-03-10T04:27:32.183Z,94065.47
2024-03-10T04:30:35.926Z,94052.09
2024-03-10T04:33:37.669Z,94049.28
2024-03-10T04:36:40.182Z,94048.13
2024-03-10T04:39:42.308Z,94036.53
2024-03-10T04:42:44.481Z,94026.59
2024-03-10T04:45:46.111Z,94023.44
2024-03-10T04:48:49.649Z,94014.06
2024-03-10T04:51:51.261Z,94000.47
2024-03-10T04:54:53.649Z,94004.13
2024-03-10T04:57:56.975Z,94001.47
2024-03-10T05:00:59.106Z,93999.84
2024-03-10T05:04:01.829Z,93999.00
2024-03-10T05:07:05.552Z,94015.31
2024-03-10T05:10:07.662Z,94023.91
2024-03-10T05:13:11.069Z,94023.75
2024-03-10T05:16:13.752Z,94020.28
2024-03-10T05:19:15.811Z,94018.63
2024-03-10T05:22:18.248Z,94039.13
2024-03-10T05:25:20.012Z,94031.56
2024-03-10T05:28:21.753Z,94037.66
2024-03-10T05:31:31.272Z,94038.84
2024-03-10T05:34:34.189Z,94031.25
2024-03-10T05:37:36.184Z,94028.16
2024-03-10T05:40:37.758Z,94036.25
2024-03-10T05:43:39.829Z,94049.00
2024-03-10T05:46:43.287Z,94029.56
2024-03-10T05:49:46.140Z,94047.03
2024-03-10T05:52:48.118Z,94052.69
2024-03-10T05:55:49.833Z,94051.38
2024-03-10T05:58:52.037Z,94041.50
2024-03-10T06:01:55.232Z,94043.16
2024-03-10T06:04:56.970Z,94036.91
2024-03-10T06:07:59.765Z,94053.59
2024-03-10T06:11:02.476Z,94051.28
2024-03-10T06:14:05.043Z,94052.94
2024-03-10T06:17:09.374Z,94045.38
2024-03-10T06:20:31.069Z,94041.72
2024-03-10T06:23:53.001Z,94035.44
2024-03-10T06:26:55.826Z,94017.97
2024-03-10T06:29:57.481Z,94034.81
2024-03-10T06:32:59.121Z,94044.00
2024-03-10T06:36:00.807Z,94050.94
2024-03-10T06:39:02.480Z,94045.13
2024-03-10T06:42:05.234Z,94044.63
2024-03-10T06:45:07.275Z,94045.75
2024-03-10T06:48:09.018Z,94057.44
2024-03-10T06:51:11.907Z,94039.06
2024-03-10T06:54:14.305Z,94020.88
2024-03-10T06:57:15.917Z,94029.53
2024-03-10T07:00:21.393Z,94010.16
2024-03-10T07:03:24.118Z,94015.38
2024-03-10T07:06:28.605Z,94027.72
2024-03-10T07:09:30.340Z,94017.06
2024-03-10T07:12:32.596Z,94000.13
2024-03-10T07:15:34.212Z,93999.06
2024-03-10T07:18:38.235Z,94005.06
2024-03-10T07:21:39.912Z,94003.00
2024-03-10T07:24:41.585Z,94001.72
2024-03-10T07:27:44.497Z,93993.78
2024-03-10T07:30:46.107Z,93987.03
2024-03-10T07:33:47.932Z,93988.22
2024-03-10T07:36:50.062Z,93992.09
2024-03-10T07:39:51.741Z,93981.94
2024-03-10T07:42:54.910Z,93971.28
2024-03-10T07:45:57.033Z,93975.56
2024-03-10T07:49:02.120Z,93969.75
2024-03-10T07:52:06.191Z,93974.34
2024-03-10T07:55:08.408Z,93968.09
2024-03-10T07:58:10.102Z,93971.06
2024-03-10T08:01:13.005Z,93964.59
2024-03-10T08:04:14.714Z,93969.59
2024-03-10T08:07:17.254Z,93988.84
2024-03-10T08:10:20.419Z,93984.78
2024-03-10T08:13:22.154Z,93982.44
2024-03-10T08:16:24.232Z,93984.31
2024-03-10T08:19:27.042Z,93973.13
2024-03-10T08:22:29.069Z,93988.53
2024-03-10T08:25:31.338Z,94000.25
2024-03-10T08:28:32.960Z,93992.34
2024-03-10T08:31:35.124Z,93985.47
2024-03-10T08:34:37.193Z,93973.88
2024-03-10T08:37:40.123Z,93983.94
2024-03-10T08:43:45.031Z,93956.78
2024-03-10T08:46:47.341Z,93968.69
2024-03-10T08:49:48.998Z,93958.47
2024-03-10T08:52:52.118Z,93958.88
2024-03-10T08:55:54.226Z,93946.25
2024-03-10T08:58:55.916Z,93927.41
2024-03-10T09:01:57.595Z,93937.03
2024-03-10T09:05:00.826Z,93924.34
2024-03-10T09:08:04.189Z,93901.41
2024-03-10T09:11:07.829Z,93900.16
2024-03-10T09:14:09.807Z,93902.00
2024-03-10T09:17:14.484Z,93899.50
2024-03-10T09:20:22.572Z,93893.97
2024-03-10T09:23:24.832Z,93903.78
2024-03-10T09:26:27.119Z,93889.25
2024-03-10T09:29:28.844Z,93900.91
2024-03-10T09:32:31.580Z,93895.75
2024-03-10T09:35:36.814Z,93896.78
2024-03-10T09:38:41.603Z,93903.75
2024-03-10T09:41:44.098Z,93909.25
2024-03-10T09:44:46.535Z,93916.59
2024-03-10T09:47:51.508Z,93911.88
2024-03-10T09:50:55.530Z,93910.88
2024-03-10T09:53:59.658Z,93912.28
2024-03-10T09:57:01.319Z,93906.75
2024-03-10T10:00:13.817Z,93910.22
2024-03-10T10:03:16.320Z,93899.34
2024-03-10T10:06:20.684Z,93901.81
2024-03-10T10:09:27.422Z,93901.78
2024-03-10T10:12:29.288Z,93892.53
2024-03-10T10:15:34.593Z,93894.38
2024-03-10T10:18:47.683Z,93879.34
2024-03-10T10:21:56.805Z,93874.41
2024-03-10T10:25:04.882Z,93877.47
2024-03-10T10:28:13.955Z,93887.28
2024-03-10T10:31:16.875Z,93874.97
2024-03-10T10:34:21.309Z,93882.53
2024-03-10T10:37:24.020Z,93875.72
2024-03-10T10:40:26.295Z,93871.16
2024-03-10T10:43:28.911Z,93862.28
2024-03-10T10:46:31.674Z,93847.69
2024-03-10T10:49:33.406Z,93846.25
2024-03-10T10:52:35.093Z,93833.06
2024-03-10T10:55:41.222Z,93829.34
2024-03-10T10:58:50.278Z,93824.81
2024-03-10T11:02:14.719Z,93832.16
2024-03-10T11:05:20.034Z,93833.34
2024-03-10T11:08:22.922Z,93838.66
2024-03-10T11:11:50.072Z,93846.16
2024-03-10T11:14:53.914Z,93839.50
2024-03-10T11:17:56.587Z,93832.84
2024-03-10T11:20:59.630Z,93831.50
2024-03-10T11:24:01.966Z,93829.16
2024-03-10T11:27:14.797Z,93825.50
2024-03-10T11:30:42.238Z,93834.66
2024-03-10T11:33:44.661Z,93833.75
2024-03-10T11:36:47.558Z,93823.19
2024-03-10T11:39:51.682Z,93813.69
2024-03-10T11:42:56.692Z,93814.66
2024-03-10T11:45:58.266Z,93807.59
2024-03-10T11:49:02.375Z,93801.59
2024-03-10T11:52:07.789Z,93791.00
2024-03-10T11:55:15.552Z,93799.75
2024-03-10T11:58:18.179Z,93810.59
2024-03-10T12:01:20.647Z,93812.56
2024-03-10T12:04:23.423Z,93811.69
2024-03-10T12:07:26.829Z,93793.91
2024-03-10T12:10:33.946Z,93795.69
2024-03-10T12:13:41.265Z,93796.63
2024-03-10T12:16:49.917Z,93793.41
2024-03-10T12:19:52.427Z,93804.34
2024-03-10T12:22:59.450Z,93800.75
2024-03-10T12:26:12.580Z,93806.59
2024-03-10T12:29:14.356Z,93802.16
2024-03-10T12:32:16.387Z,93809.28
2024-03-10T12:35:20.864Z,93808.94
2024-03-10T12:38:22.550Z,93797.78
2024-03-10T12:41:25.081Z,93795.81
2024-03-10T12:44:29.467Z,93794.78
2024-03-10T12:47:32.010Z,93797.34
2024-03-10T12:50:34.176Z,93791.28
2024-03-10T12:53:37.344Z,93780.09
2024-03-10T12:56:40.973Z,93773.31
2024-03-10T12:59:43.118Z,93765.19
2024-03-10T13:02:46.070Z,93767.16
2024-03-10T13:05:47.936Z,93771.25
2024-03-10T13:08:50.276Z,93760.31
2024-03-10T13:11:52.458Z,93754.44
2024-03-10T13:14:54.693Z,93749.09
2024-03-10T13:17:56.809Z,93744.09
2024-03-10T13:20:59.130Z,93730.22
2024-03-10T13:24:00.790Z,93727.31
2024-03-10T13:27:02.455Z,93714.94
2024-03-10T13:30:07.793Z,93707.25
2024-03-10T13:33:09.559Z,93708.31
2024-03-10T13:36:17.627Z,93715.06
2024-03-10T13:39:21.114Z,93708.63
2024-03-10T13:42:24.650Z,93708.63
2024-03-10T13:45:35.562Z,93712.72
2024-03-10T13:48:42.959Z,93707.72
2024-03-10T13:51:48.531Z,93688.97
2024-03-10T13:54:53.787Z,93686.03
2024-03-10T13:57:56.121Z,93682.28
2024-03-10T14:00:57.838Z,93685.56
2024-03-10T14:03:59.442Z,93678.34
2024-03-10T14:07:01.826Z,93670.06
2024-03-10T14:10:04.744Z,93672.47
2024-03-10T14:13:08.765Z,93663.16
2024-03-10T14:16:11.554Z,93646.25
2024-03-10T14:19:14.261Z,93663.50
2024-03-10T14:22:16.340Z,93667.78
2024-03-10T14:25:19.155Z,93664.66
2024-03-10T14:28:22.446Z,93657.19
2024-03-10T14:31:25.871Z,93650.78
2024-03-10T14:34:27.497Z,93647.28
2024-03-10T14:37:29.367Z,93654.50
2024-03-10T14:40:34.666Z,93656.69
2024-03-10T14:43:36.261Z,93661.00
2024-03-10T14:46:38.492Z,93653.19
2024-03-10T14:49:40.631Z,93645.41
2024-03-10T14:52:43.127Z,93644.00
2024-03-10T14:55:44.865Z,93642.38
2024-03-10T14:58:49.778Z,93646.13
2024-03-10T15:01:51.831Z,93651.16
2024-03-10T15:04:54.602Z,93649.97
2024-03-10T15:08:00.657Z,93660.16
2024-03-10T15:11:02.891Z,93655.03
2024-03-10T15:14:06.552Z,93668.28
2024-03-10T15:17:09.096Z,93669.19
2024-03-10T15:20:12.126Z,93669.53
2024-03-10T15:23:17.128Z,93678.41
2024-03-10T15:26:19.829Z,93671.66
2024-03-10T15:29:23.543Z,93672.69
2024-03-10T15:32:25.815Z,93664.31
2024-03-10T15:35:27.966Z,93671.28
2024-03-10T15:38:30.219Z,93674.47
2024-03-10T15:41:33.222Z,93676.78
2024-03-10T15:44:36.292Z,93678.09
2024-03-10T15:47:40.882Z,93662.97
2024-03-10T15:50:44.182Z,93668.78
2024-03-10T15:53:46.726Z,93672.19
2024-03-10T15:56:49.005Z,93671.38
2024-03-10T15:59:52.638Z,93672.88
2024-03-10T16:02:55.876Z,93677.31
2024-03-10T16:05:59.912Z,93679.91
2024-03-10T16:09:01.802Z,93694.25
2024-03-10T16:12:05.748Z,93724.31
2024-03-10T16:15:13.828Z,93738.03
2024-03-10T16:18:16.125Z,93753.19
2024-03-10T16:21:37.741Z,93733.16
2024-03-10T16:24:45.313Z,93750.25
2024-03-10T16:27:51.006Z,93776.69
2024-03-10T16:30:53.212Z,93767.94
2024-03-10T16:33:55.086Z,93760.81
2024-03-10T16:36:57.978Z,93781.28
2024-03-10T16:40:00.062Z,93782.81
2024-03-10T16:43:02.340Z,93796.75
2024-03-10T16:46:04.702Z,93789.59
2024-03-10T16:49:07.632Z,93816.44
2024-03-10T16:52:10.752Z,93814.53
2024-03-10T16:55:13.852Z,93807.88
2024-03-10T16:58:15.995Z,93814.56
2024-03-10T17:01:18.873Z,93820.22
2024-03-10T17:04:21.820Z,93830.03
2024-03-10T17:07:23.493Z,93847.34
2024-03-10T17:10:25.697Z,93865.91
2024-03-10T17:13:28.051Z,93871.34
2024-03-10T17:16:29.690Z,93879.19
2024-03-10T17:19:32.412Z,93883.56
2024-03-10T17:22:38.570Z,93896.78
2024-03-10T17:25:40.336Z,93908.13
2024-03-10T17:28:42.837Z,93921.31
2024-03-10T17:31:44.870Z,93918.50
2024-03-10T17:34:46.522Z,93921.00
2024-03-10T17:37:49.028Z,93935.44
2024-03-10T17:40:52.100Z,93950.50
2024-03-10T17:43:54.211Z,93959.59
2024-03-10T17:46:56.752Z,93979.53
2024-03-10T17:49:59.640Z,93991.69
2024-03-10T17:53:01.710Z,94001.34
2024-03-10T17:56:03.783Z,94006.31
2024-03-10T17:59:07.916Z,94004.50
2024-03-10T18:02:10.489Z,94023.81
2024-03-10T18:05:15.233Z,94034.28
2024-03-10T18:08:17.372Z,94033.69
2024-03-10T18:11:20.724Z,94046.44
2024-03-10T18:14:22.525Z,94053.22
2024-03-10T18:17:24.842Z,94080.13
2024-03-10T18:20:27.386Z,94094.13
2024-03-10T18:23:30.433Z,94114.22
2024-03-10T18:26:33.230Z,94122.03
2024-03-10T18:29:35.351Z,94137.66
2024-03-10T18:32:37.415Z,94135.81
2024-03-10T18:35:41.143Z,94148.13
2024-03-10T18:38:45.181Z,94152.25
2024-03-10T18:41:47.029Z,94158.00
2024-03-10T18:44:49.629Z,94160.03
2024-03-10T18:47:51.925Z,94167.22
2024-03-10T18:50:58.757Z,94162.25
2024-03-10T18:54:08.065Z,94176.00
2024-03-10T18:57:11.148Z,94163.06
2024-03-10T19:00:13.765Z,94165.69
2024-03-10T19:03:16.392Z,94162.84
2024-03-10T19:06:18.201Z,94172.22
2024-03-10T19:09:22.281Z,94171.38
2024-03-10T19:12:24.377Z,94170.13
2024-03-10T19:15:27.384Z,94170.09
2024-03-10T19:18:29.134Z,94156.53
2024-03-10T19:21:34.890Z,94161.16
2024-03-10T19:24:37.004Z,94146.00
2024-03-10T19:27:38.862Z,94122.66
2024-03-10T19:30:40.913Z,94113.00
2024-03-10T19:33:42.883Z,94111.31
2024-03-10T19:36:44.554Z,94170.91
2024-03-10T19:39:46.316Z,94171.31
2024-03-10T19:42:50.049Z,94190.69
2024-03-10T19:45:52.344Z,94207.03
2024-03-10T19:48:54.692Z,94224.38
2024-03-10T19:51:56.670Z,94218.00
2024-03-10T19:55:01.237Z,94232.31
2024-03-10T19:58:07.112Z,94233.72
2024-03-10T20:01:09.847Z,94238.81
2024-03-10T20:04:12.680Z,94262.53
2024-03-10T20:07:14.526Z,94265.59
2024-03-10T20:10:19.609Z,94259.81
2024-03-10T20:13:21.411Z,94275.16
2024-03-10T20:16:23.138Z,94278.19
2024-03-10T20:19:24.769Z,94279.19
2024-03-10T20:22:27.302Z,94282.69
2024-03-10T20:25:31.950Z,94286.53
2024-03-10T20:28:34.646Z,94289.13
2024-03-10T20:31:36.594Z,94291.53
2024-03-10T20:34:38.241Z,94303.75
2024-03-10T20:37:44.543Z,94306.59
2024-03-10T20:40:46.451Z,94314.34
2024-03-10T20:43:48.059Z,94331.28
2024-03-10T20:46:50.154Z,94341.44
2024-03-10T20:49:53.797Z,94347.97
2024-03-10T20:52:55.615Z,94352.84
2024-03-10T20:55:59.077Z,94358.97
2024-03-10T20:59:00.940Z,94366.13
2024-03-10T21:02:03.350Z,94375.09
2024-03-10T21:05:05.307Z,94380.63
2024-03-10T21:08:14.165Z,94376.03
2024-03-10T21:11:16.518Z,94380.97
2024-03-10T21:14:18.747Z,94385.28
2024-03-10T21:17:21.989Z,94395.91
2024-03-10T21:20:26.155Z,94404.91
2024-03-10T21:23:28.363Z,94410.22
2024-03-10T21:26:30.206Z,94415.69
2024-03-10T21:29:32.798Z,94431.47
2024-03-10T21:32:34.946Z,94433.28
2024-03-10T21:35:39.723Z,94444.09
2024-03-10T21:38:42.259Z,94465.84
2024-03-10T21:41:44.094Z,94452.91
2024-03-10T21:44:45.893Z,94462.69
2024-03-10T21:47:48.910Z,94473.50
2024-03-10T21:50:51.180Z,94501.28
2024-03-10T21:53:53.389Z,94490.84
2024-03-10T21:56:55.875Z,94481.69
2024-03-10T21:59:57.756Z,94488.91
2024-03-10T22:02:59.858Z,94477.28
2024-03-10T22:06:01.943Z,94481.78
2024-03-10T22:09:05.865Z,94482.38
2024-03-10T22:12:08.964Z,94483.78
2024-03-10T22:15:18.640Z,94505.69
2024-03-10T22:18:20.512Z,94494.56
2024-03-10T22:21:22.294Z,94508.25
2024-03-10T22:24:24.466Z,94494.66
2024-03-10T22:27:26.109Z,94507.75
2024-03-10T22:30:31.185Z,94485.41
2024-03-10T22:33:33.920Z,94493.13
2024-03-10T22:36:35.548Z,94504.25
2024-03-10T22:39:37.186Z,94504.16
2024-03-10T22:42:40.958Z,94507.63
2024-03-10T22:45:43.200Z,94518.63
2024-03-10T22:48:44.841Z,94524.28
2024-03-10T22:51:46.571Z,94534.25
2024-03-10T22:54:48.586Z,94538.47
2024-03-10T22:57:51.425Z,94543.00
2024-03-10T23:00:57.016Z,94547.84
2024-03-10T23:03:58.650Z,94542.88
2024-03-10T23:07:02.158Z,94547.91
2024-03-10T23:10:05.385Z,94551.91
2024-03-10T23:13:09.506Z,94563.22
2024-03-10T23:16:11.921Z,94556.63
2024-03-10T23:19:13.858Z,94559.16
2024-03-10T23:22:15.423Z,94565.31
2024-03-10T23:25:17.349Z,94575.13
2024-03-10T23:28:19.421Z,94570.50
2024-03-10T23:31:21.303Z,94574.47
2024-03-10T23:34:23.209Z,94575.84
2024-03-10T23:37:24.816Z,94570.88
2024-03-10T23:40:26.517Z,94568.59
2024-03-10T23:43:28.119Z,94572.56
2024-03-10T23:46:30.317Z,94572.28
2024-03-10T23:49:35.298Z,94576.06
2024-03-10T23:52:38.008Z,94591.50
2024-03-10T23:55:45.060Z,94587.53
2024-03-10T23:58:54.557Z,94581.75
